createdAt,value
2017-08-26T03:30:18.041Z,55.60
2017-08-26T03:32:45.613Z,55.70
2017-08-26T03:35:13.257Z,55.90
2017-08-26T03:37:40.855Z,56.00
2017-08-26T03:40:09.339Z,56.10
2017-08-26T03:42:37.520Z,56.10
2017-08-26T03:45:05.138Z,56.00
2017-08-26T03:47:32.768Z,56.60
2017-08-26T03:50:00.383Z,56.00
2017-08-26T03:52:28.002Z,56.20
2017-08-26T03:54:55.599Z,56.40
2017-08-26T03:57:23.285Z,56.20
2017-08-26T03:59:50.885Z,56.40
2017-08-26T04:02:18.560Z,56.60
2017-08-26T04:04:46.163Z,56.70
2017-08-26T04:07:14.139Z,57.00
2017-08-26T04:09:41.739Z,57.10
2017-08-26T04:12:09.357Z,57.30
2017-08-26T04:14:37.034Z,57.70
2017-08-26T04:17:04.639Z,57.70
2017-08-26T04:19:32.641Z,57.60
2017-08-26T04:22:00.241Z,57.20
2017-08-26T04:24:27.845Z,57.00
2017-08-26T04:26:55.840Z,56.80
2017-08-26T04:29:23.443Z,56.80
2017-08-26T04:31:51.043Z,57.00
2017-08-26T04:34:19.123Z,56.90
2017-08-26T04:36:46.727Z,57.20
2017-08-26T04:39:14.343Z,57.50
2017-08-26T04:41:42.380Z,57.10
2017-08-26T04:44:10.023Z,56.80
2017-08-26T04:46:37.645Z,56.60
2017-08-26T04:49:05.286Z,56.80
2017-08-26T04:51:32.932Z,57.10
2017-08-26T04:54:00.552Z,57.10
2017-08-26T04:56:28.164Z,57.50
2017-08-26T04:58:55.811Z,57.60
2017-08-26T05:01:23.419Z,58.10
2017-08-26T05:03:51.498Z,58.30
2017-08-26T05:06:19.117Z,58.20
2017-08-26T05:08:46.748Z,58.70
2017-08-26T05:11:14.364Z,59.00
2017-08-26T05:13:42.021Z,58.60
2017-08-26T05:16:09.643Z,58.20
2017-08-26T05:18:37.263Z,58.10
2017-08-26T05:21:04.905Z,57.50
2017-08-26T05:23:32.515Z,57.40
2017-08-26T05:26:00.135Z,57.40
2017-08-26T05:28:27.845Z,57.30
2017-08-26T05:30:55.719Z,57.20
2017-08-26T05:33:23.411Z,57.40
2017-08-26T05:35:51.030Z,57.30
2017-08-26T05:38:18.654Z,57.20
2017-08-26T05:40:46.353Z,56.70
2017-08-26T05:43:14.405Z,56.60
2017-08-26T05:45:42.017Z,56.40
2017-08-26T05:48:09.626Z,56.10
2017-08-26T05:50:37.273Z,56.20
2017-08-26T05:53:04.879Z,55.90
2017-08-26T05:55:32.493Z,55.90
2017-08-26T05:58:00.102Z,55.80
2017-08-26T06:00:27.880Z,55.70
2017-08-26T06:02:55.490Z,55.30
2017-08-26T06:05:23.101Z,55.50
2017-08-26T06:07:50.756Z,55.50
2017-08-26T06:10:18.382Z,55.00
2017-08-26T06:12:46.017Z,54.80
2017-08-26T06:15:13.622Z,54.60
2017-08-26T06:17:41.247Z,54.70
2017-08-26T06:20:09.229Z,54.40
2017-08-26T06:22:37.545Z,54.30
2017-08-26T06:25:05.147Z,54.10
2017-08-26T06:27:32.817Z,53.80
2017-08-26T06:30:00.577Z,54.10
2017-08-26T06:32:28.206Z,54.00
2017-08-26T06:34:55.836Z,54.60
2017-08-26T06:37:23.516Z,54.00
2017-08-26T06:39:53.283Z,54.10
2017-08-26T06:42:20.894Z,53.90
2017-08-26T06:44:48.901Z,53.40
2017-08-26T06:47:16.507Z,53.40
2017-08-26T06:49:44.125Z,53.50
2017-08-26T06:52:11.911Z,53.10
2017-08-26T06:54:39.534Z,53.00
2017-08-26T06:57:07.167Z,53.00
2017-08-26T06:59:34.784Z,53.20
2017-08-26T07:02:03.050Z,52.50
2017-08-26T07:04:30.868Z,52.20
2017-08-26T07:06:58.529Z,52.80
2017-08-26T07:09:26.151Z,52.70
2017-08-26T07:11:54.121Z,52.00
2017-08-26T07:14:22.857Z,52.40
2017-08-26T07:16:50.529Z,52.80
2017-08-26T07:19:18.552Z,52.30
2017-08-26T07:21:46.164Z,51.80
2017-08-26T07:24:13.851Z,51.60
2017-08-26T07:26:41.826Z,52.00
2017-08-26T07:29:09.476Z,51.20
2017-08-26T07:31:37.450Z,51.10
2017-08-26T07:34:06.231Z,49.40
2017-08-26T07:36:34.151Z,49.40
2017-08-26T07:39:01.788Z,49.70
2017-08-26T07:41:29.839Z,49.80
2017-08-26T07:43:57.466Z,50.40
2017-08-26T07:46:25.078Z,49.80
2017-08-26T07:48:53.134Z,49.90
2017-08-26T07:51:20.738Z,49.90
2017-08-26T07:53:48.361Z,49.80
2017-08-26T07:56:16.288Z,49.00
2017-08-26T07:58:43.928Z,49.10
2017-08-26T08:01:12.527Z,48.80
2017-08-26T08:03:40.518Z,49.50
2017-08-26T08:06:08.141Z,49.70
2017-08-26T08:08:35.746Z,48.30
2017-08-26T08:11:03.671Z,48.10
2017-08-26T08:13:31.321Z,48.00
2017-08-26T08:15:59.245Z,47.90
2017-08-26T08:18:26.902Z,47.20
2017-08-26T08:20:54.526Z,46.60
2017-08-26T08:23:22.159Z,47.40
2017-08-26T08:25:49.805Z,47.70
2017-08-26T08:28:17.455Z,47.10
2017-08-26T08:30:45.081Z,46.70
2017-08-26T08:33:13.093Z,47.20
2017-08-26T08:35:40.882Z,46.90
2017-08-26T08:38:08.818Z,46.40
2017-08-26T08:40:36.458Z,46.20
2017-08-26T08:43:04.064Z,45.70
2017-08-26T08:45:31.713Z,45.40
2017-08-26T08:47:59.392Z,44.50
2017-08-26T08:50:27.049Z,44.20
2017-08-26T08:52:54.669Z,43.00
2017-08-26T08:55:22.663Z,43.70
2017-08-26T08:57:50.278Z,42.30
2017-08-26T09:00:17.927Z,40.30
2017-08-26T09:02:45.921Z,39.20
2017-08-26T09:05:13.521Z,38.20
2017-08-26T09:07:42.206Z,36.60
2017-08-26T09:10:10.311Z,35.80
2017-08-26T09:12:37.930Z,35.70
2017-08-26T09:15:05.572Z,33.70
2017-08-26T09:17:33.554Z,33.00
2017-08-26T09:20:01.204Z,31.50
2017-08-26T09:22:28.830Z,29.70
2017-08-26T09:24:56.957Z,29.50
2017-08-26T09:27:24.585Z,29.10
2017-08-26T09:29:52.207Z,28.40
2017-08-26T09:32:20.655Z,27.00
2017-08-26T09:34:48.280Z,25.90
2017-08-26T09:37:15.887Z,26.50
2017-08-26T09:39:43.914Z,24.90
2017-08-26T09:42:11.522Z,25.20
2017-08-26T09:44:39.141Z,26.30
2017-08-26T09:47:07.103Z,26.70
2017-08-26T09:49:34.752Z,25.30
2017-08-26T09:52:02.592Z,24.60
2017-08-26T09:54:30.626Z,24.10
2017-08-26T09:56:58.286Z,22.10
2017-08-26T09:59:25.913Z,22.10
2017-08-26T10:01:54.276Z,21.60
2017-08-26T10:04:22.494Z,21.10
2017-08-26T10:06:50.138Z,20.90
2017-08-26T10:09:19.037Z,20.40
2017-08-26T10:11:46.672Z,20.30
2017-08-26T10:14:14.483Z,20.20
2017-08-26T10:16:42.585Z,19.70
2017-08-26T10:19:10.211Z,19.30
2017-08-26T10:21:37.818Z,18.50
2017-08-26T10:24:05.853Z,18.50
2017-08-26T10:26:34.374Z,17.90
2017-08-26T10:29:02.030Z,17.40
2017-08-26T10:31:30.187Z,17.00
2017-08-26T10:33:57.961Z,17.40
2017-08-26T10:36:25.629Z,17.30
2017-08-26T10:38:53.616Z,17.70
2017-08-26T10:41:21.225Z,17.30
2017-08-26T10:43:48.837Z,17.00
2017-08-26T10:46:16.819Z,16.60
2017-08-26T10:48:44.473Z,16.40
2017-08-26T10:51:12.082Z,16.40
2017-08-26T10:53:40.246Z,17.10
2017-08-26T10:56:07.882Z,16.80
2017-08-26T10:58:35.573Z,16.30
2017-08-26T11:01:03.568Z,15.00
2017-08-26T11:03:31.181Z,14.80
2017-08-26T11:05:58.792Z,15.70
2017-08-26T11:08:27.562Z,16.40
2017-08-26T11:10:55.179Z,16.30
2017-08-26T11:13:22.801Z,16.10
2017-08-26T11:15:50.956Z,16.00
2017-08-26T11:18:19.178Z,15.50
2017-08-26T11:20:46.808Z,15.90
2017-08-26T11:23:14.854Z,15.20
2017-08-26T11:25:42.482Z,16.00
2017-08-26T11:28:10.128Z,15.50
2017-08-26T11:30:38.152Z,16.10
2017-08-26T11:33:05.769Z,16.20
2017-08-26T11:35:33.397Z,17.20
2017-08-26T11:38:01.445Z,17.80
2017-08-26T11:40:29.034Z,19.10
2017-08-26T11:42:56.639Z,18.70
2017-08-26T11:45:24.648Z,19.90
2017-08-26T11:47:52.249Z,19.90
2017-08-26T11:50:19.862Z,21.30
2017-08-26T11:52:47.833Z,21.20
2017-08-26T11:55:15.462Z,21.90
2017-08-26T11:57:43.185Z,22.40
2017-08-26T12:00:11.358Z,21.70
2017-08-26T12:02:39.006Z,22.00
2017-08-26T12:05:06.626Z,22.70
2017-08-26T12:07:34.647Z,23.20
2017-08-26T12:10:02.256Z,23.60
2017-08-26T12:12:29.871Z,23.50
2017-08-26T12:14:58.109Z,23.60
2017-08-26T12:17:25.735Z,24.20
2017-08-26T12:19:53.446Z,24.50
2017-08-26T12:22:21.393Z,25.20
2017-08-26T12:24:48.992Z,25.80
2017-08-26T12:27:16.601Z,25.60
2017-08-26T12:29:44.567Z,26.70
2017-08-26T12:32:12.185Z,26.80
2017-08-26T12:34:39.868Z,27.80
2017-08-26T12:37:07.997Z,28.00
2017-08-26T12:39:35.633Z,28.00
2017-08-26T12:42:03.271Z,27.70
2017-08-26T12:44:31.276Z,27.20
2017-08-26T12:46:58.881Z,26.90
2017-08-26T12:49:26.524Z,27.50
2017-08-26T12:51:54.612Z,28.20
2017-08-26T12:54:22.446Z,28.70
2017-08-26T12:56:50.242Z,29.10
2017-08-26T12:59:18.286Z,30.00
2017-08-26T13:01:45.892Z,29.60
2017-08-26T13:04:13.529Z,29.20
2017-08-26T13:06:41.512Z,29.50
2017-08-26T13:09:09.147Z,29.10
2017-08-26T13:11:36.783Z,28.00
2017-08-26T13:14:04.871Z,28.60
2017-08-26T13:16:32.478Z,28.00
2017-08-26T13:19:00.154Z,28.00
2017-08-26T13:21:28.137Z,28.40
2017-08-26T13:23:55.759Z,29.00
2017-08-26T13:26:23.397Z,29.20
2017-08-26T13:28:51.497Z,29.30
2017-08-26T13:31:19.166Z,29.70
2017-08-26T13:33:46.813Z,29.20
2017-08-26T13:36:14.902Z,29.90
2017-08-26T13:38:42.555Z,29.80
2017-08-26T13:41:10.162Z,29.60
2017-08-26T13:43:39.075Z,30.00
2017-08-26T13:46:06.707Z,30.00
2017-08-26T13:48:34.343Z,30.10
2017-08-26T13:51:02.459Z,30.50
2017-08-26T13:53:30.801Z,31.00
2017-08-26T13:55:58.442Z,30.00
2017-08-26T13:58:26.041Z,31.50
2017-08-26T14:00:53.648Z,31.50
2017-08-26T14:03:21.322Z,32.40
2017-08-26T14:05:48.948Z,30.30
2017-08-26T14:08:16.599Z,31.90
2017-08-26T14:10:44.218Z,32.70
2017-08-26T14:13:12.200Z,30.90
2017-08-26T14:15:39.811Z,30.90
2017-08-26T14:18:07.512Z,30.60
2017-08-26T14:20:35.184Z,31.10
2017-08-26T14:23:02.846Z,31.50
2017-08-26T14:25:30.455Z,30.40
2017-08-26T14:27:58.070Z,31.50
2017-08-26T14:30:26.222Z,32.80
2017-08-26T14:32:53.854Z,31.40
2017-08-26T14:35:21.511Z,31.90
2017-08-26T14:37:49.162Z,31.80
2017-08-26T14:40:16.787Z,32.30
2017-08-26T14:42:44.458Z,32.60
2017-08-26T14:45:12.073Z,32.10
2017-08-26T14:47:39.702Z,32.70
2017-08-26T14:50:07.445Z,32.70
2017-08-26T14:52:35.471Z,32.90
2017-08-26T14:55:03.147Z,33.50
2017-08-26T14:57:31.036Z,33.50
2017-08-26T14:59:58.732Z,33.50
2017-08-26T15:02:26.380Z,33.80
2017-08-26T15:04:54.123Z,34.40
2017-08-26T15:07:21.774Z,34.60
2017-08-26T15:09:49.814Z,34.40
2017-08-26T15:12:17.485Z,34.50
2017-08-26T15:14:45.094Z,34.10
2017-08-26T15:17:13.142Z,34.70
2017-08-26T15:19:40.790Z,34.30
2017-08-26T15:22:08.492Z,35.30
2017-08-26T15:24:36.597Z,34.10
2017-08-26T15:27:04.494Z,34.10
2017-08-26T15:29:32.185Z,34.30
2017-08-26T15:32:00.166Z,34.80
2017-08-26T15:34:27.821Z,35.20
2017-08-26T15:36:55.437Z,34.70
2017-08-26T15:39:23.481Z,33.70
2017-08-26T15:41:51.176Z,34.80
2017-08-26T15:44:18.824Z,34.40
2017-08-26T15:46:47.624Z,34.20
2017-08-26T15:49:15.312Z,34.20
2017-08-26T15:51:43.041Z,34.20
2017-08-26T15:54:11.065Z,34.10
2017-08-26T15:56:38.750Z,33.30
2017-08-26T15:59:06.384Z,33.80
2017-08-26T16:01:34.575Z,33.70
2017-08-26T16:04:02.230Z,32.40
2017-08-26T16:06:29.863Z,31.90
2017-08-26T16:08:59.818Z,31.90
2017-08-26T16:11:27.466Z,31.40
2017-08-26T16:13:55.093Z,31.20
2017-08-26T16:16:23.119Z,31.40
2017-08-26T16:18:50.753Z,31.10
2017-08-26T16:21:18.740Z,31.00
2017-08-26T16:23:47.073Z,31.50
2017-08-26T16:26:14.678Z,31.50
2017-08-26T16:28:42.289Z,31.90
2017-08-26T16:31:10.404Z,31.90
2017-08-26T16:33:38.255Z,31.70
2017-08-26T16:36:05.984Z,31.60
2017-08-26T16:38:34.017Z,31.90
2017-08-26T16:41:01.645Z,32.00
2017-08-26T16:43:29.263Z,32.90
2017-08-26T16:45:57.332Z,32.50
2017-08-26T16:48:24.949Z,32.10
2017-08-26T16:50:52.645Z,32.00
2017-08-26T16:53:20.941Z,32.20
2017-08-26T16:55:48.586Z,32.20
2017-08-26T16:58:16.206Z,32.30
2017-08-26T17:00:44.218Z,33.00
2017-08-26T17:03:11.845Z,33.10
2017-08-26T17:05:39.458Z,33.10
2017-08-26T17:08:07.676Z,33.20
2017-08-26T17:10:35.353Z,33.60
2017-08-26T17:13:02.989Z,33.80
2017-08-26T17:15:31.107Z,33.30
2017-08-26T17:17:58.741Z,33.40
2017-08-26T17:20:26.362Z,33.30
2017-08-26T17:22:54.406Z,33.30
2017-08-26T17:25:22.019Z,33.30
2017-08-26T17:27:49.666Z,33.40
2017-08-26T17:30:17.738Z,33.50
2017-08-26T17:32:45.349Z,33.30
2017-08-26T17:35:13.011Z,33.60
2017-08-26T17:37:41.094Z,34.10
2017-08-26T17:40:08.779Z,34.30
2017-08-26T17:42:36.426Z,35.00
2017-08-26T17:45:04.461Z,35.20
2017-08-26T17:47:32.120Z,35.40
2017-08-26T17:49:59.765Z,35.60
2017-08-26T17:52:27.778Z,35.80
2017-08-26T17:54:55.453Z,36.00
2017-08-26T17:57:23.068Z,36.20
2017-08-26T17:59:51.069Z,36.40
2017-08-26T18:02:18.677Z,36.90
2017-08-26T18:04:46.320Z,36.30
2017-08-26T18:07:14.275Z,36.50
2017-08-26T18:09:41.904Z,37.20
2017-08-26T18:12:09.569Z,37.70
2017-08-26T18:14:37.697Z,37.50
2017-08-26T18:17:05.341Z,37.60
2017-08-26T18:19:32.973Z,37.80
2017-08-26T18:22:00.995Z,37.50
2017-08-26T18:24:28.610Z,37.90
2017-08-26T18:26:56.295Z,37.90
2017-08-26T18:29:24.410Z,37.80
2017-08-26T18:31:52.036Z,37.90
2017-08-26T18:34:20.047Z,37.80
2017-08-26T18:36:49.122Z,38.60
2017-08-26T18:39:16.791Z,38.60
2017-08-26T18:41:44.417Z,39.00
2017-08-26T18:44:12.458Z,39.10
2017-08-26T18:46:40.076Z,39.10
2017-08-26T18:49:07.705Z,39.00
2017-08-26T18:51:37.696Z,39.80
2017-08-26T18:54:05.659Z,39.80
2017-08-26T18:56:33.281Z,39.60
2017-08-26T18:59:01.270Z,39.50
2017-08-26T19:01:28.913Z,39.70
2017-08-26T19:03:56.673Z,39.60
2017-08-26T19:06:24.816Z,39.70
2017-08-26T19:08:52.464Z,39.90
2017-08-26T19:11:20.089Z,40.20
2017-08-26T19:13:48.103Z,39.60
2017-08-26T19:16:15.708Z,41.10
2017-08-26T19:18:43.336Z,41.30
2017-08-26T19:21:12.108Z,41.30
2017-08-26T19:23:39.711Z,41.70
2017-08-26T19:26:07.315Z,42.40
2017-08-26T19:28:35.313Z,41.90
2017-08-26T19:31:02.994Z,42.00
2017-08-26T19:33:30.628Z,42.30
2017-08-26T19:35:59.453Z,42.60
2017-08-26T19:38:27.078Z,42.60
2017-08-26T19:40:54.682Z,42.80
2017-08-26T19:43:22.814Z,42.90
2017-08-26T19:45:50.687Z,43.30
2017-08-26T19:48:18.589Z,43.80
2017-08-26T19:50:46.613Z,44.20
2017-08-26T19:53:14.224Z,43.80
2017-08-26T19:55:42.790Z,43.20
2017-08-26T19:58:10.782Z,43.30
2017-08-26T20:00:38.407Z,43.40
2017-08-26T20:03:06.045Z,43.80
2017-08-26T20:05:34.134Z,44.30
2017-08-26T20:08:01.800Z,44.90
2017-08-26T20:10:29.420Z,44.60
2017-08-26T20:12:57.403Z,45.20
2017-08-26T20:15:25.032Z,45.50
2017-08-26T20:17:52.792Z,45.80
2017-08-26T20:20:20.809Z,46.20
2017-08-26T20:22:48.680Z,46.30
2017-08-26T20:25:16.481Z,46.20
2017-08-26T20:27:44.506Z,46.50
2017-08-26T20:30:12.131Z,46.10
2017-08-26T20:32:39.753Z,46.40
2017-08-26T20:35:07.748Z,45.90
2017-08-26T20:37:35.366Z,45.60
2017-08-26T20:40:02.991Z,45.70
2017-08-26T20:42:31.028Z,45.70
2017-08-26T20:44:58.655Z,45.80
2017-08-26T20:47:26.296Z,45.70
2017-08-26T20:49:54.296Z,45.70
2017-08-26T20:52:21.996Z,45.90
2017-08-26T20:54:49.624Z,45.80
2017-08-26T20:57:17.612Z,45.70
2017-08-26T20:59:45.239Z,45.90
2017-08-26T21:02:12.862Z,46.50
2017-08-26T21:04:40.844Z,46.70
2017-08-26T21:07:08.489Z,47.10
2017-08-26T21:09:36.197Z,47.20
2017-08-26T21:12:04.204Z,47.60
2017-08-26T21:14:31.812Z,48.00
2017-08-26T21:16:59.461Z,48.30
2017-08-26T21:19:27.480Z,48.30
2017-08-26T21:21:55.086Z,47.60
2017-08-26T21:24:22.700Z,47.20
2017-08-26T21:26:50.850Z,47.50
2017-08-26T21:29:18.457Z,48.00
2017-08-26T21:31:46.894Z,48.30
2017-08-26T21:34:14.968Z,48.30
2017-08-26T21:36:42.618Z,48.70
2017-08-26T21:39:10.236Z,49.20
2017-08-26T21:41:38.261Z,49.40
2017-08-26T21:44:05.886Z,49.40
2017-08-26T21:46:33.511Z,49.80
2017-08-26T21:49:01.546Z,50.00
2017-08-26T21:51:29.163Z,50.00
2017-08-26T21:53:56.787Z,50.10
2017-08-26T21:56:24.845Z,50.00
2017-08-26T21:58:52.486Z,50.20
2017-08-26T22:01:20.099Z,50.40
2017-08-26T22:03:48.077Z,50.60
2017-08-26T22:06:15.703Z,50.70
2017-08-26T22:08:43.360Z,50.80
2017-08-26T22:11:11.432Z,50.80
2017-08-26T22:13:39.054Z,50.60
2017-08-26T22:16:06.658Z,50.30
2017-08-26T22:18:34.823Z,50.50
2017-08-26T22:21:02.455Z,50.90
2017-08-26T22:23:30.090Z,51.30
2017-08-26T22:25:58.109Z,51.10
2017-08-26T22:28:25.721Z,51.20
